Almond, Wisconsin
Current Conditions -  °F | °C
As of 7:56 PM on Wednesday 26 Nov 2014 (Local Time) from KY50 Reporting Station
Haze Haze  
Wind Chill: 18°   Ceiling: 6000
Heat Index: 18°   Visibility: 6mi
Dew Point: 16°   Wind: 3mph
Humidity: 92%   Direction: 300°WNW
Pressure: 30.2"   Gusts: NA
Location:  44.26°N, 89.41°W
Report Text: KY50 270156Z AUTO 30003KT 6SM BR FEW034 OVC060 M08/M09 A3020 RMK AO2 TSNO T10771088 SLP239
Loading
Personal Weather Stations






























Interactive Weather Map New forecast layout! Learn more

10-Day Weather Forecast

Advertisements
Track Severe Weather on mobile